createdAt,value
2022-09-25T00:01:38.385Z,94960.44
2022-09-25T00:05:21.164Z,94961.69
2022-09-25T00:09:07.809Z,94957.66
2022-09-25T00:12:52.543Z,94961.56
2022-09-25T00:16:35.403Z,94957.53
2022-09-25T00:20:24.103Z,94949.25
2022-09-25T00:24:08.288Z,94943.63
2022-09-25T00:27:54.365Z,94941.00
2022-09-25T00:31:37.128Z,94929.88
2022-09-25T00:35:21.321Z,94936.16
2022-09-25T00:39:04.062Z,94931.56
2022-09-25T00:42:46.883Z,94942.91
2022-09-25T00:46:32.087Z,94931.56
2022-09-25T00:50:29.627Z,94934.47
2022-09-25T00:54:17.876Z,94925.84
2022-09-25T00:58:02.013Z,94917.22
2022-09-25T01:01:45.196Z,94919.94
2022-09-25T01:05:30.721Z,94928.97
2022-09-25T01:09:13.450Z,94922.28
2022-09-25T01:12:57.099Z,94927.53
2022-09-25T01:16:42.824Z,94920.28
2022-09-25T01:20:37.169Z,94926.81
2022-09-25T01:24:32.850Z,94915.09
2022-09-25T01:28:38.519Z,94917.16
2022-09-25T01:32:24.300Z,94914.75
2022-09-25T01:36:12.157Z,94910.50
2022-09-25T01:39:59.451Z,94904.69
2022-09-25T01:43:45.828Z,94894.59
2022-09-25T01:47:30.159Z,94897.22
2022-09-25T01:51:16.746Z,94899.06
2022-09-25T01:55:08.477Z,94894.00
2022-09-25T01:58:55.956Z,94898.69
2022-09-25T02:02:42.494Z,94895.69
2022-09-25T02:06:25.631Z,94897.97
2022-09-25T02:10:13.729Z,94894.75
2022-09-25T02:14:00.967Z,94901.25
2022-09-25T02:18:05.218Z,94902.06
2022-09-25T02:21:51.824Z,94903.50
2022-09-25T02:25:38.543Z,94902.13
2022-09-25T02:29:23.277Z,94917.53
2022-09-25T02:33:08.445Z,94909.94
2022-09-25T02:36:51.327Z,94917.69
2022-09-25T02:40:38.764Z,94913.28
2022-09-25T02:44:32.595Z,94911.47
2022-09-25T02:48:24.889Z,94902.41
2022-09-25T02:52:12.402Z,94901.41
2022-09-25T02:56:00.945Z,94894.28
2022-09-25T02:59:48.380Z,94894.00
2022-09-25T03:03:32.378Z,94896.19
2022-09-25T03:07:15.461Z,94887.72
2022-09-25T03:10:59.210Z,94877.19
2022-09-25T03:14:41.913Z,94888.28
2022-09-25T03:18:28.393Z,94886.25
2022-09-25T03:22:12.040Z,94880.41
2022-09-25T03:25:55.639Z,94875.13
2022-09-25T03:29:38.389Z,94868.84
2022-09-25T03:33:21.074Z,94867.38
2022-09-25T03:37:05.116Z,94868.19
2022-09-25T03:40:47.888Z,94872.66
2022-09-25T03:44:30.662Z,94873.91
2022-09-25T03:48:13.366Z,94873.09
2022-09-25T03:51:56.125Z,94871.47
2022-09-25T03:55:40.195Z,94856.50
2022-09-25T03:59:22.909Z,94866.22
2022-09-25T04:03:05.646Z,94861.75
2022-09-25T04:06:48.432Z,94859.72
2022-09-25T04:10:31.391Z,94861.97
2022-09-25T04:14:15.822Z,94848.00
2022-09-25T04:18:03.648Z,94852.03
2022-09-25T04:21:49.854Z,94861.53
2022-09-25T04:25:32.684Z,94848.38
2022-09-25T04:29:18.102Z,94854.22
2022-09-25T04:33:18.268Z,94857.88
2022-09-25T04:37:01.231Z,94855.09
2022-09-25T04:40:45.996Z,94860.22
2022-09-25T04:44:31.029Z,94852.31
2022-09-25T04:48:13.907Z,94856.56
2022-09-25T04:51:56.955Z,94856.56
2022-09-25T04:55:39.655Z,94850.88
2022-09-25T04:59:22.469Z,94860.59
2022-09-25T05:03:06.719Z,94877.03
2022-09-25T05:06:51.512Z,94867.59
2022-09-25T05:10:35.453Z,94872.44
2022-09-25T05:14:18.125Z,94874.06
2022-09-25T05:18:02.217Z,94871.97
2022-09-25T05:21:46.295Z,94860.94
2022-09-25T05:25:28.990Z,94853.78
2022-09-25T05:29:12.201Z,94865.63
2022-09-25T05:32:58.100Z,94868.41
2022-09-25T05:36:40.911Z,94860.22
2022-09-25T05:40:25.357Z,94868.25
2022-09-25T05:44:09.987Z,94874.78
2022-09-25T05:48:02.063Z,94873.53
2022-09-25T05:51:45.007Z,94871.47
2022-09-25T05:55:29.169Z,94866.56
2022-09-25T05:59:12.053Z,94871.00
2022-09-25T06:02:55.044Z,94868.34
2022-09-25T06:06:37.851Z,94872.97
2022-09-25T06:10:21.037Z,94873.69
2022-09-25T06:14:05.254Z,94871.63
2022-09-25T06:17:48.235Z,94883.38
2022-09-25T06:21:30.987Z,94879.69
2022-09-25T06:25:15.750Z,94874.00
2022-09-25T06:29:03.226Z,94877.13
2022-09-25T06:32:47.639Z,94871.03
2022-09-25T06:36:30.402Z,94867.81
2022-09-25T06:40:13.237Z,94873.53
2022-09-25T06:43:56.045Z,94867.69
2022-09-25T06:47:38.946Z,94867.97
2022-09-25T06:51:23.918Z,94869.13
2022-09-25T06:55:07.531Z,94852.28
2022-09-25T06:58:50.400Z,94850.94
2022-09-25T07:02:50.671Z,94860.16
2022-09-25T07:06:37.340Z,94860.31
2022-09-25T07:10:20.151Z,94870.44
2022-09-25T07:14:03.001Z,94872.88
2022-09-25T07:17:45.814Z,94868.28
2022-09-25T07:21:30.751Z,94867.75
2022-09-25T07:25:15.036Z,94866.72
2022-09-25T07:29:00.214Z,94856.06
2022-09-25T07:32:45.361Z,94856.53
2022-09-25T07:36:28.631Z,94862.03
2022-09-25T07:40:13.387Z,94864.69
2022-09-25T07:44:18.042Z,94868.78
2022-09-25T07:48:03.297Z,94869.78
2022-09-25T07:51:48.463Z,94871.72
2022-09-25T07:55:31.210Z,94880.34
2022-09-25T07:59:15.438Z,94874.38
2022-09-25T08:03:00.068Z,94872.09
2022-09-25T08:06:42.847Z,94877.19
2022-09-25T08:10:25.895Z,94877.31
2022-09-25T08:14:08.678Z,94878.47
2022-09-25T08:17:53.044Z,94880.53
2022-09-25T08:21:36.600Z,94877.53
2022-09-25T08:25:19.460Z,94873.88
2022-09-25T08:29:02.427Z,94872.59
2022-09-25T08:32:45.194Z,94870.44
2022-09-25T08:36:29.708Z,94880.06
2022-09-25T08:40:18.913Z,94884.09
2022-09-25T08:44:05.272Z,94880.06
2022-09-25T08:48:06.596Z,94892.72
2022-09-25T08:51:53.013Z,94886.16
2022-09-25T08:55:54.757Z,94889.50
2022-09-25T08:59:40.549Z,94892.72
2022-09-25T09:03:24.336Z,94889.50
2022-09-25T09:07:26.413Z,94879.47
2022-09-25T09:11:14.045Z,94877.88
2022-09-25T09:15:04.598Z,94875.25
2022-09-25T09:18:47.356Z,94878.13
2022-09-25T09:22:33.733Z,94882.47
2022-09-25T09:26:18.994Z,94876.84
2022-09-25T09:30:12.049Z,94870.06
2022-09-25T09:34:02.584Z,94866.06
2022-09-25T09:37:54.122Z,94859.47
2022-09-25T09:41:46.077Z,94861.34
2022-09-25T09:45:33.897Z,94848.00
2022-09-25T09:49:19.680Z,94844.59
2022-09-25T09:53:05.781Z,94854.44
2022-09-25T09:56:51.246Z,94854.75
2022-09-25T10:00:34.787Z,94856.06
2022-09-25T10:04:19.213Z,94856.28
2022-09-25T10:08:03.497Z,94852.78
2022-09-25T10:11:48.273Z,94853.00
2022-09-25T10:15:35.142Z,94854.91
2022-09-25T10:19:20.161Z,94857.84
2022-09-25T10:23:06.145Z,94846.97
2022-09-25T10:26:49.062Z,94840.81
2022-09-25T10:30:31.855Z,94850.38
2022-09-25T10:34:22.129Z,94853.53
2022-09-25T10:38:08.014Z,94851.94
2022-09-25T10:41:50.885Z,94849.22
2022-09-25T10:45:35.391Z,94847.22
2022-09-25T10:49:37.533Z,94850.25
2022-09-25T10:53:30.559Z,94835.59
2022-09-25T10:57:18.681Z,94838.06
2022-09-25T11:01:03.511Z,94830.97
2022-09-25T11:04:46.360Z,94832.03
2022-09-25T11:08:31.611Z,94826.34
2022-09-25T11:12:18.697Z,94835.69
2022-09-25T11:16:02.592Z,94831.25
2022-09-25T11:19:45.284Z,94827.31
2022-09-25T11:23:35.181Z,94832.63
2022-09-25T11:27:22.149Z,94815.88
2022-09-25T11:31:13.443Z,94816.06
2022-09-25T11:35:21.202Z,94817.94
2022-09-25T11:39:25.384Z,94816.88
2022-09-25T11:43:10.539Z,94810.59
2022-09-25T11:46:59.904Z,94805.91
2022-09-25T11:50:56.874Z,94810.31
2022-09-25T11:54:49.565Z,94808.69
2022-09-25T11:58:44.575Z,94805.22
2022-09-25T12:02:37.528Z,94798.06
2022-09-25T12:06:53.577Z,94786.88
2022-09-25T12:10:48.534Z,94785.84
2022-09-25T12:14:35.684Z,94794.44
2022-09-25T12:18:27.562Z,94784.97
2022-09-25T12:22:16.436Z,94784.50
2022-09-25T12:26:15.076Z,94784.84
2022-09-25T12:30:19.264Z,94780.28
2022-09-25T12:34:08.704Z,94772.28
2022-09-25T12:37:55.178Z,94776.91
2022-09-25T12:41:42.759Z,94771.66
2022-09-25T12:45:31.168Z,94771.50
2022-09-25T12:49:19.300Z,94774.16
2022-09-25T12:53:11.019Z,94763.31
2022-09-25T12:56:59.266Z,94775.56
2022-09-25T13:00:44.175Z,94775.09
2022-09-25T13:04:49.400Z,94782.84
2022-09-25T13:08:35.236Z,94773.13
2022-09-25T13:12:33.156Z,94771.13
2022-09-25T13:16:16.949Z,94770.09
2022-09-25T13:20:33.777Z,94765.72
2022-09-25T13:24:18.245Z,94773.53
2022-09-25T13:28:08.961Z,94774.91
2022-09-25T13:31:53.517Z,94772.91
2022-09-25T13:35:36.275Z,94774.78
2022-09-25T13:39:40.493Z,94789.03
2022-09-25T13:43:26.692Z,94783.56
2022-09-25T13:47:50.628Z,94778.09
2022-09-25T13:51:36.967Z,94783.78
2022-09-25T13:55:20.227Z,94777.56
2022-09-25T13:59:25.445Z,94783.09
2022-09-25T14:03:32.238Z,94780.50
2022-09-25T14:07:23.692Z,94763.84
2022-09-25T14:11:10.114Z,94776.13
2022-09-25T14:14:57.291Z,94771.47
2022-09-25T14:18:43.838Z,94769.28
2022-09-25T14:22:33.058Z,94759.22
2022-09-25T14:26:21.552Z,94749.59
2022-09-25T14:30:10.959Z,94763.06
2022-09-25T14:34:17.518Z,94757.81
2022-09-25T14:38:14.017Z,94758.78
2022-09-25T14:42:35.630Z,94768.63
2022-09-25T14:46:20.862Z,94762.38
2022-09-25T14:50:04.552Z,94759.47
2022-09-25T14:53:49.797Z,94756.41
2022-09-25T14:57:38.174Z,94750.16
2022-09-25T15:01:27.563Z,94751.88
2022-09-25T15:05:29.037Z,94751.50
2022-09-25T15:09:29.354Z,94755.00
2022-09-25T15:13:15.901Z,94746.88
2022-09-25T15:17:17.331Z,94758.41
2022-09-25T15:21:01.598Z,94747.84
2022-09-25T15:24:48.442Z,94758.16
2022-09-25T15:28:34.289Z,94759.44
2022-09-25T15:32:23.488Z,94757.03
2022-09-25T15:36:16.066Z,94753.22
2022-09-25T15:40:02.350Z,94749.31
2022-09-25T15:43:45.197Z,94757.91
2022-09-25T15:47:50.440Z,94752.63
2022-09-25T15:51:36.055Z,94749.53
2022-09-25T15:55:19.176Z,94748.03
2022-09-25T15:59:03.881Z,94752.34
2022-09-25T16:03:09.799Z,94746.06
2022-09-25T16:06:52.502Z,94760.44
2022-09-25T16:10:35.546Z,94756.66
2022-09-25T16:14:22.524Z,94760.78
2022-09-25T16:18:27.402Z,94764.63
2022-09-25T16:22:16.721Z,94774.28
2022-09-25T16:26:00.098Z,94765.72
2022-09-25T16:29:45.239Z,94762.44
2022-09-25T16:33:34.478Z,94759.72
2022-09-25T16:37:21.884Z,94763.28
2022-09-25T16:41:05.865Z,94765.22
2022-09-25T16:44:49.813Z,94769.47
2022-09-25T16:48:39.732Z,94767.72
2022-09-25T16:52:24.074Z,94754.88
2022-09-25T16:56:07.056Z,94758.72
2022-09-25T16:59:50.194Z,94761.63
2022-09-25T17:03:49.824Z,94761.44
2022-09-25T17:07:32.846Z,94758.16
2022-09-25T17:11:16.767Z,94754.03
2022-09-25T17:14:59.725Z,94755.44
2022-09-25T17:18:43.897Z,94773.63
2022-09-25T17:22:30.300Z,94775.13
2022-09-25T17:26:18.410Z,94771.59
2022-09-25T17:30:01.523Z,94775.97
2022-09-25T17:33:46.437Z,94771.97
2022-09-25T17:37:29.157Z,94776.13
2022-09-25T17:41:18.226Z,94769.13
2022-09-25T17:45:01.599Z,94764.31
2022-09-25T17:48:50.146Z,94776.16
2022-09-25T17:52:36.159Z,94770.06
2022-09-25T17:56:20.960Z,94771.56
2022-09-25T18:00:05.193Z,94776.72
2022-09-25T18:03:51.244Z,94776.06
2022-09-25T18:07:34.105Z,94781.81
2022-09-25T18:11:17.679Z,94787.97
2022-09-25T18:15:00.886Z,94803.81
2022-09-25T18:19:01.326Z,94797.06
2022-09-25T18:22:47.534Z,94799.00
2022-09-25T18:26:31.560Z,94792.69
2022-09-25T18:30:24.121Z,94803.28
2022-09-25T18:34:07.238Z,94801.91
2022-09-25T18:37:51.594Z,94799.25
2022-09-25T18:41:38.039Z,94796.50
2022-09-25T18:45:22.003Z,94810.06
2022-09-25T18:49:08.665Z,94806.38
2022-09-25T18:52:53.074Z,94802.59
2022-09-25T18:56:36.205Z,94805.13
2022-09-25T19:00:20.541Z,94809.38
2022-09-25T19:04:07.576Z,94811.06
2022-09-25T19:07:53.417Z,94806.25
2022-09-25T19:11:36.533Z,94803.47
2022-09-25T19:15:28.874Z,94808.75
2022-09-25T19:19:18.714Z,94816.44
2022-09-25T19:23:09.799Z,94819.66
2022-09-25T19:26:52.671Z,94822.28
2022-09-25T19:30:36.946Z,94819.66
2022-09-25T19:34:21.942Z,94817.84
2022-09-25T19:38:11.780Z,94822.56
2022-09-25T19:41:58.040Z,94825.63
2022-09-25T19:45:43.611Z,94824.47
2022-09-25T19:49:27.193Z,94826.75
2022-09-25T19:53:12.030Z,94832.16
2022-09-25T19:56:55.871Z,94830.78
2022-09-25T20:00:41.935Z,94835.25
2022-09-25T20:04:27.329Z,94828.38
2022-09-25T20:08:14.737Z,94832.03
2022-09-25T20:11:57.543Z,94831.00
2022-09-25T20:15:42.210Z,94831.94
2022-09-25T20:19:27.722Z,94840.41
2022-09-25T20:23:13.223Z,94834.56
2022-09-25T20:26:56.685Z,94831.34
2022-09-25T20:30:39.471Z,94835.22
2022-09-25T20:34:22.381Z,94831.88
2022-09-25T20:38:07.296Z,94827.06
2022-09-25T20:41:51.713Z,94829.91
2022-09-25T20:45:34.513Z,94835.41
2022-09-25T20:49:20.902Z,94839.06
2022-09-25T20:53:03.930Z,94836.28
2022-09-25T20:56:46.892Z,94840.41
2022-09-25T21:00:32.615Z,94842.44
2022-09-25T21:04:18.411Z,94839.50
2022-09-25T21:08:03.215Z,94840.75
2022-09-25T21:11:48.536Z,94840.69
2022-09-25T21:15:35.534Z,94840.09
2022-09-25T21:19:20.858Z,94836.28
2022-09-25T21:23:10.293Z,94836.47
2022-09-25T21:26:53.354Z,94829.00
2022-09-25T21:30:38.758Z,94831.53
2022-09-25T21:34:22.252Z,94828.69
2022-09-25T21:38:05.164Z,94824.91
2022-09-25T21:41:50.974Z,94831.28
2022-09-25T21:45:33.885Z,94831.75
2022-09-25T21:49:27.384Z,94834.03
2022-09-25T21:53:10.166Z,94838.94
2022-09-25T21:56:54.379Z,94831.47
2022-09-25T22:00:37.277Z,94834.31
2022-09-25T22:04:27.392Z,94830.66
2022-09-25T22:08:16.319Z,94836.75
2022-09-25T22:11:59.697Z,94837.09
2022-09-25T22:15:42.456Z,94831.53
2022-09-25T22:19:27.956Z,94833.59
2022-09-25T22:23:10.771Z,94834.03
2022-09-25T22:26:54.664Z,94839.31
2022-09-25T22:30:39.285Z,94840.56
2022-09-25T22:34:24.093Z,94828.84
2022-09-25T22:38:08.266Z,94837.81
2022-09-25T22:41:54.263Z,94837.03
2022-09-25T22:45:37.308Z,94842.50
2022-09-25T22:49:20.449Z,94830.59
2022-09-25T22:53:04.318Z,94822.91
2022-09-25T22:56:48.388Z,94821.31
2022-09-25T23:00:31.304Z,94824.38
2022-09-25T23:04:16.259Z,94811.66
2022-09-25T23:07:59.018Z,94816.19
2022-09-25T23:11:42.567Z,94807.72
2022-09-25T23:15:26.902Z,94802.44
2022-09-25T23:19:09.782Z,94808.16
2022-09-25T23:22:52.881Z,94810.66
2022-09-25T23:26:35.974Z,94803.34
2022-09-25T23:30:20.413Z,94804.94
2022-09-25T23:34:07.376Z,94808.59
2022-09-25T23:37:50.235Z,94800.84
2022-09-25T23:41:34.383Z,94798.66
2022-09-25T23:45:20.019Z,94802.91
2022-09-25T23:49:08.285Z,94794.41
2022-09-25T23:52:51.517Z,94800.25
2022-09-25T23:56:36.591Z,94800.50
